createdAt,value
2024-01-09T00:02:11.028Z,-4.90
2024-01-09T00:04:37.781Z,-4.90
2024-01-09T00:07:04.709Z,-4.90
2024-01-09T00:09:34.757Z,-4.80
2024-01-09T00:12:01.467Z,-4.80
2024-01-09T00:14:28.422Z,-4.80
2024-01-09T00:16:55.323Z,-4.80
2024-01-09T00:19:22.182Z,-4.80
2024-01-09T00:21:49.281Z,-4.80
2024-01-09T00:24:15.885Z,-4.80
2024-01-09T00:26:44.733Z,-4.80
2024-01-09T00:29:11.486Z,-4.80
2024-01-09T00:31:38.225Z,-4.80
2024-01-09T00:34:05.225Z,-4.80
2024-01-09T00:36:32.139Z,-4.80
2024-01-09T00:38:58.856Z,-4.80
2024-01-09T00:41:25.862Z,-4.80
2024-01-09T00:43:53.304Z,-4.80
2024-01-09T00:46:20.051Z,-4.80
2024-01-09T00:48:46.936Z,-4.80
2024-01-09T00:51:13.808Z,-4.80
2024-01-09T00:53:40.662Z,-4.80
2024-01-09T00:56:07.342Z,-4.80
2024-01-09T00:58:35.278Z,-4.80
2024-01-09T01:01:02.090Z,-4.80
2024-01-09T01:03:28.984Z,-4.80
2024-01-09T01:05:55.712Z,-4.80
2024-01-09T01:08:23.779Z,-4.90
2024-01-09T01:10:52.634Z,-4.90
2024-01-09T01:13:22.027Z,-4.90
2024-01-09T01:15:49.160Z,-4.90
2024-01-09T01:18:18.431Z,-4.90
2024-01-09T01:20:46.347Z,-4.90
2024-01-09T01:23:13.285Z,-4.90
2024-01-09T01:25:40.935Z,-5.00
2024-01-09T01:28:07.726Z,-5.00
2024-01-09T01:30:34.427Z,-5.10
2024-01-09T01:33:01.365Z,-5.10
2024-01-09T01:35:28.092Z,-5.20
2024-01-09T01:37:56.124Z,-5.20
2024-01-09T01:40:22.805Z,-5.20
2024-01-09T01:42:49.461Z,-5.30
2024-01-09T01:45:20.113Z,-5.30
2024-01-09T01:47:47.965Z,-5.30
2024-01-09T01:50:15.302Z,-5.30
2024-01-09T01:52:42.415Z,-5.30
2024-01-09T01:55:11.338Z,-5.30
2024-01-09T01:57:39.702Z,-5.30
2024-01-09T02:00:07.437Z,-5.30
2024-01-09T02:02:35.282Z,-5.30
2024-01-09T02:05:02.652Z,-5.30
2024-01-09T02:07:30.720Z,-5.40
2024-01-09T02:10:00.086Z,-5.40
2024-01-09T02:12:26.798Z,-5.40
2024-01-09T02:14:54.064Z,-5.60
2024-01-09T02:17:22.321Z,-5.70
2024-01-09T02:19:50.094Z,-5.80
2024-01-09T02:22:17.105Z,-5.90
2024-01-09T02:24:44.234Z,-5.90
2024-01-09T02:27:15.021Z,-6.00
2024-01-09T02:29:48.097Z,-6.10
2024-01-09T02:32:15.700Z,-6.10
2024-01-09T02:34:43.513Z,-6.20
2024-01-09T02:37:14.186Z,-6.20
2024-01-09T02:39:42.359Z,-6.20
2024-01-09T02:42:10.352Z,-6.20
2024-01-09T02:44:37.351Z,-6.30
2024-01-09T02:47:04.395Z,-6.40
2024-01-09T02:49:32.276Z,-6.30
2024-01-09T02:52:00.585Z,-6.40
2024-01-09T02:54:27.635Z,-6.40
2024-01-09T02:56:54.321Z,-6.40
2024-01-09T02:59:25.561Z,-6.40
2024-01-09T03:01:52.248Z,-6.50
2024-01-09T03:04:21.137Z,-6.50
2024-01-09T03:06:48.217Z,-6.40
2024-01-09T03:09:15.147Z,-6.50
2024-01-09T03:11:42.092Z,-6.60
2024-01-09T03:14:09.057Z,-6.50
2024-01-09T03:16:35.940Z,-6.60
2024-01-09T03:19:02.888Z,-6.60
2024-01-09T03:21:29.840Z,-6.70
2024-01-09T03:23:56.941Z,-6.70
2024-01-09T03:26:24.244Z,-6.70
2024-01-09T03:28:51.912Z,-6.70
2024-01-09T03:31:19.536Z,-6.70
2024-01-09T03:33:47.730Z,-6.70
2024-01-09T03:36:15.963Z,-6.60
2024-01-09T03:38:44.494Z,-6.60
2024-01-09T03:41:11.766Z,-6.60
2024-01-09T03:43:39.206Z,-6.60
2024-01-09T03:46:09.554Z,-6.70
2024-01-09T03:48:36.384Z,-6.70
2024-01-09T03:51:03.527Z,-6.70
2024-01-09T03:53:30.260Z,-6.80
2024-01-09T03:56:02.084Z,-6.70
2024-01-09T03:58:28.791Z,-6.70
2024-01-09T04:00:55.601Z,-6.80
2024-01-09T04:03:23.996Z,-6.80
2024-01-09T04:05:51.919Z,-6.80
2024-01-09T04:08:19.057Z,-6.80
2024-01-09T04:10:45.809Z,-6.80
2024-01-09T04:13:12.737Z,-6.80
2024-01-09T04:15:39.805Z,-6.90
2024-01-09T04:18:07.838Z,-6.90
2024-01-09T04:20:34.576Z,-6.80
2024-01-09T04:23:02.449Z,-6.90
2024-01-09T04:25:29.239Z,-7.00
2024-01-09T04:28:02.646Z,-7.00
2024-01-09T04:30:31.420Z,-7.00
2024-01-09T04:33:01.299Z,-7.00
2024-01-09T04:35:28.276Z,-7.00
2024-01-09T04:37:55.754Z,-7.10
2024-01-09T04:40:22.640Z,-7.10
2024-01-09T04:42:50.647Z,-7.10
2024-01-09T04:45:19.860Z,-7.10
2024-01-09T04:47:47.963Z,-7.20
2024-01-09T04:50:17.198Z,-7.10
2024-01-09T04:52:43.972Z,-7.10
2024-01-09T04:55:11.754Z,-7.20
2024-01-09T04:57:40.786Z,-7.20
2024-01-09T05:00:07.927Z,-7.20
2024-01-09T05:02:34.653Z,-7.20
2024-01-09T05:05:01.534Z,-7.20
2024-01-09T05:07:28.471Z,-7.20
2024-01-09T05:09:56.373Z,-7.30
2024-01-09T05:12:23.245Z,-7.40
2024-01-09T05:14:50.312Z,-7.30
2024-01-09T05:17:17.249Z,-7.30
2024-01-09T05:19:44.038Z,-7.40
2024-01-09T05:24:58.406Z,-7.40
2024-01-09T05:27:25.207Z,-7.40
2024-01-09T05:29:52.050Z,-7.30
2024-01-09T05:32:18.729Z,-7.40
2024-01-09T05:34:45.679Z,-7.40
2024-01-09T05:37:12.694Z,-7.40
2024-01-09T05:39:39.714Z,-7.40
2024-01-09T05:42:06.861Z,-7.40
2024-01-09T05:44:35.123Z,-7.40
2024-01-09T05:47:02.087Z,-7.40
2024-01-09T05:49:29.116Z,-7.40
2024-01-09T05:51:56.254Z,-7.30
2024-01-09T05:54:23.994Z,-7.30
2024-01-09T05:56:50.743Z,-7.30
2024-01-09T05:59:17.436Z,-7.30
2024-01-09T06:01:44.283Z,-7.40
2024-01-09T06:04:11.359Z,-7.50
2024-01-09T06:06:39.752Z,-7.50
2024-01-09T06:09:07.332Z,-7.50
2024-01-09T06:11:36.739Z,-7.50
2024-01-09T06:14:03.561Z,-7.50
2024-01-09T06:16:34.278Z,-7.50
2024-01-09T06:19:01.066Z,-7.60
2024-01-09T06:21:27.997Z,-7.60
2024-01-09T06:23:55.817Z,-7.60
2024-01-09T06:26:22.560Z,-7.70
2024-01-09T06:28:49.284Z,-7.80
2024-01-09T06:31:16.272Z,-7.80
2024-01-09T06:33:44.118Z,-7.80
2024-01-09T06:36:10.959Z,-7.80
2024-01-09T06:38:38.872Z,-7.70
2024-01-09T06:41:05.578Z,-7.80
2024-01-09T06:43:34.353Z,-7.70
2024-01-09T06:46:02.123Z,-7.70
2024-01-09T06:48:32.140Z,-7.70
2024-01-09T06:50:59.090Z,-7.60
2024-01-09T06:53:25.888Z,-7.70
2024-01-09T06:55:52.596Z,-7.70
2024-01-09T06:58:19.279Z,-7.60
2024-01-09T07:00:46.436Z,-7.60
2024-01-09T07:03:13.413Z,-7.60
2024-01-09T07:05:40.280Z,-7.60
2024-01-09T07:08:07.934Z,-7.60
2024-01-09T07:10:35.538Z,-7.60
2024-01-09T07:13:02.443Z,-7.60
2024-01-09T07:15:29.723Z,-7.60
2024-01-09T07:17:56.601Z,-7.50
2024-01-09T07:20:25.089Z,-7.60
2024-01-09T07:22:58.838Z,-7.60
2024-01-09T07:25:32.102Z,-7.60
2024-01-09T07:27:59.015Z,-7.60
2024-01-09T07:30:26.313Z,-7.60
2024-01-09T07:32:53.381Z,-7.60
2024-01-09T07:35:21.872Z,-7.50
2024-01-09T07:37:48.840Z,-7.50
2024-01-09T07:40:16.239Z,-7.50
2024-01-09T07:42:49.109Z,-7.40
2024-01-09T07:45:24.692Z,-7.40
2024-01-09T07:47:51.628Z,-7.40
2024-01-09T07:50:18.485Z,-7.30
2024-01-09T07:52:45.455Z,-7.30
2024-01-09T07:55:12.092Z,-7.20
2024-01-09T07:57:39.051Z,-7.20
2024-01-09T08:00:06.099Z,-7.20
2024-01-09T08:02:33.285Z,-7.10
2024-01-09T08:04:59.923Z,-7.10
2024-01-09T08:07:28.912Z,-7.00
2024-01-09T08:09:56.295Z,-6.90
2024-01-09T08:12:22.947Z,-6.90
2024-01-09T08:14:50.503Z,-6.80
2024-01-09T08:17:18.455Z,-6.80
2024-01-09T08:19:46.808Z,-6.80
2024-01-09T08:22:14.136Z,-6.70
2024-01-09T08:24:41.121Z,-6.60
2024-01-09T08:27:08.278Z,-6.60
2024-01-09T08:29:35.120Z,-6.60
2024-01-09T08:32:03.885Z,-6.50
2024-01-09T08:34:30.696Z,-6.40
2024-01-09T08:36:58.305Z,-6.40
2024-01-09T08:39:30.085Z,-6.40
2024-01-09T08:41:57.107Z,-6.30
2024-01-09T08:44:26.324Z,-6.20
2024-01-09T08:46:53.145Z,-6.20
2024-01-09T08:49:21.656Z,-6.20
2024-01-09T08:51:48.559Z,-6.10
2024-01-09T08:54:15.470Z,-6.10
2024-01-09T08:56:44.039Z,-6.10
2024-01-09T08:59:12.414Z,-6.10
2024-01-09T09:01:39.313Z,-6.00
2024-01-09T09:04:06.449Z,-5.90
2024-01-09T09:06:34.406Z,-5.90
2024-01-09T09:09:01.659Z,-5.90
2024-01-09T09:11:28.583Z,-5.80
2024-01-09T09:13:55.477Z,-5.70
2024-01-09T09:16:23.223Z,-5.60
2024-01-09T09:18:50.187Z,-5.70
2024-01-09T09:21:18.146Z,-5.60
2024-01-09T09:23:46.009Z,-5.60
2024-01-09T09:26:13.571Z,-5.60
2024-01-09T09:28:55.153Z,-5.50
2024-01-09T09:31:29.681Z,-5.50
2024-01-09T09:33:57.326Z,-5.40
2024-01-09T09:36:24.723Z,-5.40
2024-01-09T09:38:57.245Z,-5.30
2024-01-09T09:41:25.080Z,-5.20
2024-01-09T09:43:58.442Z,-5.20
2024-01-09T09:46:30.733Z,-5.10
2024-01-09T09:48:57.796Z,-5.10
2024-01-09T09:51:27.103Z,-5.00
2024-01-09T09:53:54.840Z,-5.00
2024-01-09T09:56:23.261Z,-4.90
2024-01-09T09:58:50.044Z,-4.90
2024-01-09T10:01:18.595Z,-4.90
2024-01-09T10:03:50.853Z,-4.90
2024-01-09T10:06:18.876Z,-4.80
2024-01-09T10:08:47.746Z,-4.80
2024-01-09T10:11:14.595Z,-4.70
2024-01-09T10:13:42.227Z,-4.50
2024-01-09T10:16:09.613Z,-4.50
2024-01-09T10:18:37.211Z,-4.40
2024-01-09T10:21:06.874Z,-4.30
2024-01-09T10:23:36.152Z,-4.20
2024-01-09T10:26:05.589Z,-4.30
2024-01-09T10:28:32.668Z,-4.30
2024-01-09T10:30:59.449Z,-4.10
2024-01-09T10:33:28.856Z,-4.00
2024-01-09T10:36:04.964Z,-3.80
2024-01-09T10:38:32.039Z,-3.80
2024-01-09T10:40:59.214Z,-3.80
2024-01-09T10:43:26.398Z,-3.70
2024-01-09T10:45:53.716Z,-3.60
2024-01-09T10:48:23.002Z,-3.60
2024-01-09T10:50:52.601Z,-3.60
2024-01-09T10:53:21.554Z,-3.40
2024-01-09T10:55:50.438Z,-3.30
2024-01-09T10:58:18.350Z,-3.00
2024-01-09T11:00:46.068Z,-3.00
2024-01-09T11:03:15.217Z,-3.10
2024-01-09T11:05:43.286Z,-3.10
2024-01-09T11:08:11.752Z,-3.10
2024-01-09T11:10:39.158Z,-3.00
2024-01-09T11:13:09.581Z,-3.00
2024-01-09T11:15:38.897Z,-3.00
2024-01-09T11:18:10.725Z,-2.80
2024-01-09T11:20:38.009Z,-2.70
2024-01-09T11:23:05.499Z,-2.60
2024-01-09T11:25:35.796Z,-2.70
2024-01-09T11:28:05.784Z,-2.60
2024-01-09T11:30:37.287Z,-2.50
2024-01-09T11:33:25.957Z,-2.30
2024-01-09T11:35:52.799Z,-2.30
2024-01-09T11:38:19.641Z,-2.50
2024-01-09T11:40:46.602Z,-2.60
2024-01-09T11:43:18.473Z,-2.60
2024-01-09T11:45:47.927Z,-2.40
2024-01-09T11:48:15.687Z,-2.20
2024-01-09T11:50:42.682Z,-1.90
2024-01-09T11:53:10.247Z,-1.70
2024-01-09T11:55:37.943Z,-1.70
2024-01-09T11:58:05.578Z,-1.80
2024-01-09T12:00:32.469Z,-1.80
2024-01-09T12:02:59.203Z,-1.80
2024-01-09T12:05:26.024Z,-1.80
2024-01-09T12:07:53.843Z,-1.90
2024-01-09T12:10:30.762Z,-2.00
2024-01-09T12:13:04.383Z,-2.10
2024-01-09T12:15:31.322Z,-1.90
2024-01-09T12:17:59.293Z,-1.90
2024-01-09T12:20:27.071Z,-1.90
2024-01-09T12:22:54.198Z,-2.10
2024-01-09T12:25:21.759Z,-2.20
2024-01-09T12:27:53.022Z,-2.30
2024-01-09T12:30:20.029Z,-2.20
2024-01-09T12:32:48.027Z,-2.00
2024-01-09T12:35:17.427Z,-1.90
2024-01-09T12:37:45.182Z,-2.00
2024-01-09T12:40:16.661Z,-2.00
2024-01-09T12:42:44.116Z,-1.90
2024-01-09T12:45:12.595Z,-1.80
2024-01-09T12:47:39.454Z,-1.70
2024-01-09T12:50:06.653Z,-1.80
2024-01-09T12:52:34.726Z,-1.80
2024-01-09T12:55:04.888Z,-1.80
2024-01-09T12:57:33.470Z,-2.00
2024-01-09T13:00:00.756Z,-2.10
2024-01-09T13:02:28.786Z,-2.10
2024-01-09T13:04:57.917Z,-2.00
2024-01-09T13:07:27.607Z,-2.00
2024-01-09T13:09:54.248Z,-2.10
2024-01-09T13:12:22.220Z,-2.10
2024-01-09T13:14:50.130Z,-2.10
2024-01-09T13:17:17.037Z,-2.00
2024-01-09T13:19:43.797Z,-2.00
2024-01-09T13:23:46.277Z,-1.90
2024-01-09T13:25:00.267Z,-1.90
2024-01-09T13:27:28.731Z,-1.80
2024-01-09T13:32:25.515Z,-1.90
2024-01-09T13:34:52.749Z,-1.90
2024-01-09T13:37:21.662Z,-1.90
2024-01-09T13:39:51.564Z,-1.90
2024-01-09T13:42:18.612Z,-1.80
2024-01-09T13:44:45.949Z,-1.70
2024-01-09T13:47:13.755Z,-1.70
2024-01-09T13:51:41.584Z,-1.70
2024-01-09T13:52:30.075Z,-1.90
2024-01-09T13:54:57.042Z,-1.90
2024-01-09T13:57:24.847Z,-2.00
2024-01-09T13:59:53.520Z,-2.20
2024-01-09T14:02:20.568Z,-2.20
2024-01-09T14:04:47.436Z,-2.30
2024-01-09T14:07:21.057Z,-2.20
2024-01-09T14:09:47.871Z,-2.20
2024-01-09T14:12:14.955Z,-2.20
2024-01-09T14:14:47.725Z,-2.20
2024-01-09T14:17:15.221Z,-2.40
2024-01-09T14:19:43.189Z,-2.40
2024-01-09T14:22:10.400Z,-2.50
2024-01-09T14:24:38.104Z,-2.60
2024-01-09T14:27:08.988Z,-2.60
2024-01-09T14:29:37.862Z,-2.60
2024-01-09T14:32:05.090Z,-2.70
2024-01-09T14:34:33.692Z,-2.70
2024-01-09T14:37:02.471Z,-2.70
2024-01-09T14:39:29.086Z,-2.80
2024-01-09T14:41:56.052Z,-2.90
2024-01-09T14:44:24.124Z,-2.90
2024-01-09T14:46:51.940Z,-3.00
2024-01-09T14:49:19.045Z,-3.00
2024-01-09T14:51:48.562Z,-3.10
2024-01-09T14:54:19.329Z,-3.10
2024-01-09T14:56:46.473Z,-3.30
2024-01-09T14:59:17.045Z,-3.30
2024-01-09T15:01:46.459Z,-3.30
2024-01-09T15:04:15.329Z,-3.40
2024-01-09T15:06:57.492Z,-3.60
2024-01-09T15:09:28.057Z,-3.60
2024-01-09T15:11:57.090Z,-3.70
2024-01-09T15:14:23.892Z,-3.80
2024-01-09T15:16:50.612Z,-3.90
2024-01-09T15:19:17.701Z,-3.90
2024-01-09T15:21:44.694Z,-3.90
2024-01-09T15:24:14.625Z,-4.00
2024-01-09T15:26:41.962Z,-4.00
2024-01-09T15:29:09.304Z,-4.10
2024-01-09T15:31:38.506Z,-4.10
2024-01-09T15:34:07.468Z,-4.10
2024-01-09T15:36:34.529Z,-4.20
2024-01-09T15:39:01.920Z,-4.30
2024-01-09T15:41:28.881Z,-4.40
2024-01-09T15:43:56.870Z,-4.40
2024-01-09T15:46:24.096Z,-4.40
2024-01-09T15:48:52.885Z,-4.50
2024-01-09T15:51:22.668Z,-4.50
2024-01-09T15:53:51.039Z,-4.50
2024-01-09T15:56:24.529Z,-4.50
2024-01-09T15:58:51.656Z,-4.60
2024-01-09T16:01:22.508Z,-4.60
2024-01-09T16:03:50.149Z,-4.60
2024-01-09T16:06:19.980Z,-4.70
2024-01-09T16:08:47.997Z,-4.80
2024-01-09T16:11:16.279Z,-4.80
2024-01-09T16:13:44.825Z,-4.90
2024-01-09T16:16:24.596Z,-4.90
2024-01-09T16:18:51.985Z,-4.90
2024-01-09T16:21:19.168Z,-5.00
2024-01-09T16:23:46.764Z,-5.00
2024-01-09T16:26:15.125Z,-5.00
2024-01-09T16:28:42.289Z,-5.10
2024-01-09T16:31:09.493Z,-5.10
2024-01-09T16:33:37.766Z,-5.10
2024-01-09T16:36:05.978Z,-5.00
2024-01-09T16:38:33.580Z,-5.10
2024-01-09T16:41:00.355Z,-5.20
2024-01-09T16:43:27.144Z,-5.00
2024-01-09T16:45:53.855Z,-5.00
2024-01-09T16:48:32.125Z,-4.90
2024-01-09T16:51:07.378Z,-4.90
2024-01-09T16:53:35.506Z,-5.00
2024-01-09T16:56:03.576Z,-5.00
2024-01-09T16:58:32.310Z,-5.10
2024-01-09T17:00:59.950Z,-5.20
2024-01-09T17:03:30.512Z,-5.20
2024-01-09T17:05:57.234Z,-5.20
2024-01-09T17:08:25.372Z,-5.30
2024-01-09T17:10:55.778Z,-5.40
2024-01-09T17:13:24.616Z,-5.50
2024-01-09T17:15:51.307Z,-5.60
2024-01-09T17:18:23.904Z,-5.60
2024-01-09T17:20:51.772Z,-5.70
2024-01-09T17:23:18.904Z,-5.80
2024-01-09T17:25:46.185Z,-5.80
2024-01-09T17:28:13.575Z,-5.80
2024-01-09T17:30:41.606Z,-5.90
2024-01-09T17:33:09.661Z,-5.90
2024-01-09T17:35:36.997Z,-5.90
2024-01-09T17:38:03.731Z,-6.00
2024-01-09T17:40:30.502Z,-6.10
2024-01-09T17:42:57.270Z,-6.20
2024-01-09T17:45:24.354Z,-6.30
2024-01-09T17:47:51.055Z,-6.40
2024-01-09T17:50:20.307Z,-6.50
2024-01-09T17:52:47.153Z,-6.60
2024-01-09T17:55:14.075Z,-6.60
2024-01-09T17:57:40.821Z,-6.70
2024-01-09T18:00:10.635Z,-6.80
2024-01-09T18:02:41.924Z,-6.90
2024-01-09T18:05:11.447Z,-6.90
2024-01-09T18:07:38.444Z,-7.00
2024-01-09T18:10:06.637Z,-7.00
2024-01-09T18:12:34.421Z,-7.10
2024-01-09T18:15:02.957Z,-7.10
2024-01-09T18:17:34.612Z,-7.20
2024-01-09T18:20:03.409Z,-7.20
2024-01-09T18:22:30.686Z,-7.30
2024-01-09T18:25:00.231Z,-7.30
2024-01-09T18:27:27.189Z,-7.40
2024-01-09T18:30:18.160Z,-7.40
2024-01-09T18:32:44.927Z,-7.50
2024-01-09T18:35:17.880Z,-7.50
2024-01-09T18:37:46.493Z,-7.60
2024-01-09T18:40:14.809Z,-7.60
2024-01-09T18:42:42.110Z,-7.60
2024-01-09T18:45:12.024Z,-7.70
2024-01-09T18:47:41.046Z,-7.70
2024-01-09T18:50:12.113Z,-7.80
2024-01-09T18:52:40.754Z,-7.80
2024-01-09T18:55:10.067Z,-7.80
2024-01-09T18:57:38.097Z,-7.80
2024-01-09T19:00:08.886Z,-7.90
2024-01-09T19:02:35.966Z,-7.90
2024-01-09T19:05:07.732Z,-7.90
2024-01-09T19:07:34.850Z,-8.00
2024-01-09T19:10:01.565Z,-8.00
2024-01-09T19:12:29.377Z,-8.00
2024-01-09T19:14:58.518Z,-8.10
2024-01-09T19:17:26.433Z,-8.10
2024-01-09T19:19:55.892Z,-8.20
2024-01-09T19:22:22.773Z,-8.20
2024-01-09T19:24:50.863Z,-8.30
2024-01-09T19:27:18.758Z,-8.30
2024-01-09T19:29:45.543Z,-8.30
2024-01-09T19:32:15.642Z,-8.40
2024-01-09T19:34:43.680Z,-8.30
2024-01-09T19:37:10.771Z,-8.30
2024-01-09T19:39:39.070Z,-8.40
2024-01-09T19:42:17.353Z,-8.40
2024-01-09T19:44:45.313Z,-8.40
2024-01-09T19:47:12.131Z,-8.50
2024-01-09T19:49:43.391Z,-8.40
2024-01-09T19:52:12.408Z,-8.50
2024-01-09T19:54:39.061Z,-8.50
2024-01-09T19:57:05.783Z,-8.50
2024-01-09T19:59:35.406Z,-8.50
2024-01-09T20:02:02.581Z,-8.50
2024-01-09T20:04:29.914Z,-8.50
2024-01-09T20:06:56.829Z,-8.60
2024-01-09T20:09:25.100Z,-8.60
2024-01-09T20:11:55.682Z,-8.60
2024-01-09T20:14:26.699Z,-8.60
2024-01-09T20:16:54.697Z,-8.60
2024-01-09T20:19:21.389Z,-8.60
2024-01-09T20:21:48.608Z,-8.60
2024-01-09T20:24:15.610Z,-8.60
2024-01-09T20:26:42.351Z,-8.60
2024-01-09T20:29:09.233Z,-8.70
2024-01-09T20:31:39.491Z,-8.70
2024-01-09T20:34:06.597Z,-8.70
2024-01-09T20:36:43.232Z,-8.70
2024-01-09T20:39:13.476Z,-8.70
2024-01-09T20:41:46.625Z,-8.70
2024-01-09T20:44:21.585Z,-8.70
2024-01-09T20:46:48.348Z,-8.80
2024-01-09T20:49:15.499Z,-8.80
2024-01-09T20:51:43.911Z,-8.80
2024-01-09T20:54:12.246Z,-8.80
2024-01-09T20:56:42.720Z,-8.90
2024-01-09T20:59:10.296Z,-8.80
2024-01-09T21:01:42.581Z,-8.80
2024-01-09T21:04:12.962Z,-8.90
2024-01-09T21:06:44.602Z,-8.90
2024-01-09T21:09:12.792Z,-8.90
2024-01-09T21:11:39.920Z,-8.90
2024-01-09T21:14:07.038Z,-8.90
2024-01-09T21:16:34.256Z,-8.90
2024-01-09T21:19:01.341Z,-8.90
2024-01-09T21:21:28.166Z,-8.90
2024-01-09T21:23:55.416Z,-8.90
2024-01-09T21:26:22.400Z,-8.90
2024-01-09T21:28:50.320Z,-8.90
2024-01-09T21:31:17.158Z,-8.90
2024-01-09T21:33:45.491Z,-9.00
2024-01-09T21:36:12.656Z,-9.00
2024-01-09T21:38:40.394Z,-9.00
2024-01-09T21:41:07.861Z,-9.00
2024-01-09T21:43:35.710Z,-9.00
2024-01-09T21:46:05.012Z,-9.10
2024-01-09T21:48:33.210Z,-9.10
2024-01-09T21:51:00.087Z,-9.10
2024-01-09T21:53:26.913Z,-9.10
2024-01-09T21:55:58.487Z,-9.10
2024-01-09T21:58:26.324Z,-9.20
2024-01-09T22:00:53.905Z,-9.20
2024-01-09T22:03:20.688Z,-9.20
2024-01-09T22:05:50.263Z,-9.20
2024-01-09T22:08:17.076Z,-9.20
2024-01-09T22:10:48.342Z,-9.20
2024-01-09T22:13:15.040Z,-9.20
2024-01-09T22:15:43.496Z,-9.20
2024-01-09T22:18:10.817Z,-9.20
2024-01-09T22:20:37.627Z,-9.20
2024-01-09T22:23:05.464Z,-9.30
2024-01-09T22:25:32.476Z,-9.30
2024-01-09T22:27:59.718Z,-9.30
2024-01-09T22:30:29.370Z,-9.30
2024-01-09T22:32:57.211Z,-9.30
2024-01-09T22:35:25.225Z,-9.30
2024-01-09T22:37:52.086Z,-9.30
2024-01-09T22:40:22.747Z,-9.30
2024-01-09T22:42:49.671Z,-9.30
2024-01-09T22:45:16.618Z,-9.30
2024-01-09T22:47:46.442Z,-9.40
2024-01-09T22:50:13.315Z,-9.40
2024-01-09T22:52:40.407Z,-9.40
2024-01-09T22:55:07.441Z,-9.40
2024-01-09T22:57:35.303Z,-9.40
2024-01-09T23:00:02.520Z,-9.40
2024-01-09T23:02:29.408Z,-9.40
2024-01-09T23:04:56.338Z,-9.40
2024-01-09T23:07:23.083Z,-9.50
2024-01-09T23:09:52.576Z,-9.50
2024-01-09T23:12:19.357Z,-9.50
2024-01-09T23:14:46.138Z,-9.50
2024-01-09T23:17:12.971Z,-9.50
2024-01-09T23:19:40.120Z,-9.50
2024-01-09T23:22:08.144Z,-9.50
2024-01-09T23:24:34.939Z,-9.50
2024-01-09T23:27:02.513Z,-9.50
2024-01-09T23:29:29.676Z,-9.50
2024-01-09T23:31:56.608Z,-9.50
2024-01-09T23:34:25.299Z,-9.50
2024-01-09T23:36:51.938Z,-9.50
2024-01-09T23:39:18.569Z,-9.50
2024-01-09T23:41:45.392Z,-9.50
2024-01-09T23:44:12.496Z,-9.50
2024-01-09T23:46:41.545Z,-9.50
2024-01-09T23:51:36.436Z,-9.60
2024-01-09T23:54:03.477Z,-9.50
2024-01-09T23:56:32.197Z,-9.60
2024-01-09T23:58:59.159Z,-9.60
